Decoded Metar for OING (GORGAN in IRAN) (IATA:N/A) | Meteo·Mobile Aviation Weather
aviador You're here:

OING Decoded Metar

GORGAN in IRAN
Report Time2019-03-21 01:00:00
UTC Time2019-03-21 01:17:19
Flight Rules ifr IFR
Wind220° at 04 kt
W.Decomp.*RWY 13: 0.2 kt HW 4.0 kt RCW
W.Rank220° ranks 8
Current wind is below 220° avg. (7.5)
Visibility3000 m
Phenomena:Mist
Clouds:Broken 007 Hf
Overcast 080 Hf
Ceiling700 ft
Temp08°C (ISA -6)
Dew Point08°C (100% RH)
AAT6.1°C
QNH1023 hPa
Density Alt-400 ft
Elevation509 ft
Report Wrong Elevation
Raw Report
METAR OING 210100Z 22004KT 3000 BR BKN007 OVC080 08/08 Q1023=

Extra information for OING:More info

Metar Taf Metar & Taf Last 4 Metars F.Rules Stats Wind Profile Meteogram Temp Stats Airport Information Weather charts Add Link Nearby VenuesMetar ALERT Operation Metar Decoded Social comments